Time;durP1;ratioP1;P1;durP2;ratioP2;P2;SDS_P1;SDS_P2;PMS_P1;PMS_P2;Temp;Humidity;BMP_temperature;BMP_pressure;BME280_temperature;BME280_humidity;BME280_pressure;Samples;Min_cycle;Max_cycle;Signal;HPM_P1;HPM_P2
2023/10/09 00:02:21;;;;;;;6.13;3.10;;;;;;;12.66;81.31;100811.78;10154525;29;20817;-74
2023/10/09 00:07:30;;;;;;;8.60;4.13;;;;;;;12.65;81.39;100804.69;10160367;28;20142;-74
2023/10/09 00:12:33;;;;;;;8.07;3.13;;;;;;;12.50;82.68;100796.84;10160756;29;20434;-73
2023/10/09 00:17:39;;;;;;;6.80;3.63;;;;;;;12.48;82.90;100803.34;10163762;29;20152;-74
2023/10/09 00:22:46;;;;;;;7.55;3.85;;;;;;;12.37;83.11;100810.50;10152732;29;20105;-74
2023/10/09 00:27:49;;;;;;;6.00;3.80;;;;;;;12.28;83.94;100794.19;10153638;29;20056;-74
2023/10/09 00:32:59;;;;;;;8.48;4.32;;;;;;;12.22;84.81;100792.84;10180026;28;20910;-74
2023/10/09 00:38:14;;;;;;;7.45;4.03;;;;;;;12.20;85.34;100765.19;10180010;28;20048;-74
2023/10/09 00:43:19;;;;;;;9.52;3.90;;;;;;;12.24;85.72;100774.75;10171644;29;20052;-74
2023/10/09 00:48:30;;;;;;;16.63;5.72;;;;;;;12.28;86.22;100756.47;10162228;29;20079;-74
2023/10/09 00:53:35;;;;;;;12.38;5.03;;;;;;;12.08;87.87;100723.13;10162477;29;20047;-74
2023/10/09 00:58:40;;;;;;;14.35;5.70;;;;;;;12.24;87.92;100715.50;10177940;28;20047;-74
2023/10/09 01:03:43;;;;;;;12.23;6.65;;;;;;;12.35;88.29;100717.31;10155156;28;20047;-74
2023/10/09 01:08:56;;;;;;;18.27;7.85;;;;;;;12.45;88.88;100726.34;10172070;28;20077;-74
2023/10/09 01:14:11;;;;;;;14.32;7.57;;;;;;;12.56;89.23;100731.69;10165931;29;20111;-74
2023/10/09 01:19:20;;;;;;;14.90;7.75;;;;;;;12.65;88.97;100734.59;10179192;28;20073;-75
2023/10/09 01:24:26;;;;;;;12.82;8.35;;;;;;;12.76;88.67;100737.25;10174708;28;20066;-74
2023/10/09 01:29:29;;;;;;;15.15;6.38;;;;;;;12.78;88.55;100743.34;10159696;28;20070;-74
2023/10/09 01:34:41;;;;;;;12.07;6.03;;;;;;;12.74;88.57;100739.22;10150168;29;20054;-75
2023/10/09 01:39:48;;;;;;;11.75;6.80;;;;;;;12.80;88.51;100744.06;10176670;28;20044;-74
2023/10/09 01:44:51;;;;;;;15.20;6.68;;;;;;;12.83;88.43;100739.31;10179554;28;21254;-74
2023/10/09 01:49:57;;;;;;;11.55;6.28;;;;;;;12.88;88.22;100728.09;10159108;29;20154;-75
2023/10/09 01:55:13;;;;;;;20.38;10.23;;;;;;;12.89;89.72;100704.69;10169682;28;20059;-74
2023/10/09 02:00:23;;;;;;;31.20;14.20;;;;;;;13.01;94.06;100684.78;10168328;28;20052;-74
2023/10/09 02:05:26;;;;;;;37.13;16.80;;;;;;;12.69;100.00;100691.06;10154042;29;20062;-75
2023/10/09 02:10:32;;;;;;;37.22;17.60;;;;;;;13.00;99.01;100697.41;10150089;29;20048;-74
2023/10/09 02:15:51;;;;;;;39.00;17.70;;;;;;;12.89;100.00;100702.00;10164333;29;20048;-74
2023/10/09 02:21:13;;;;;;;44.30;20.08;;;;;;;13.00;100.00;100685.72;10171977;28;20131;-74
2023/10/09 02:26:25;;;;;;;38.87;18.73;;;;;;;12.95;100.00;100678.06;10157783;29;20075;-73
2023/10/09 02:31:35;;;;;;;50.47;21.88;;;;;;;12.94;100.00;100670.94;10158961;29;20076;-74
2023/10/09 02:36:49;;;;;;;49.13;21.40;;;;;;;13.08;100.00;100647.31;10155999;29;20188;-74
2023/10/09 02:42:01;;;;;;;47.42;22.40;;;;;;;13.16;100.00;100653.75;10167787;28;20059;-74
2023/10/09 02:47:06;;;;;;;;;;;;;;;13.08;100.00;100652.72;10163336;28;20090;-74
2023/10/09 02:52:09;;;;;;;44.78;21.67;;;;;;;13.08;100.00;100653.56;10169709;28;19926;-74
2023/10/09 02:57:21;;;;;;;52.10;22.92;;;;;;;13.14;100.00;100649.50;10161956;29;20051;-73
2023/10/09 03:02:24;;;;;;;;;;;;;;;13.10;100.00;100653.44;10176923;28;20063;-74
2023/10/09 03:07:27;;;;;;;48.08;24.48;;;;;;;13.10;100.00;100638.09;10158184;29;19976;-74
2023/10/09 03:12:32;;;;;;;58.03;26.63;;;;;;;13.07;100.00;100634.84;10158121;29;20056;-74
2023/10/09 03:17:36;;;;;;;49.15;26.02;;;;;;;13.15;100.00;100618.84;10150707;28;20079;-73
2023/10/09 03:22:39;;;;;;;49.00;25.90;;;;;;;12.95;100.00;100624.13;10150147;29;20056;-74
2023/10/09 03:27:44;;;;;;;51.63;25.58;;;;;;;13.04;100.00;100619.78;10150906;29;20079;-74
2023/10/09 03:32:50;;;;;;;49.33;25.83;;;;;;;13.14;100.00;100617.97;10158556;29;20051;-74
2023/10/09 03:37:57;;;;;;;52.80;24.25;;;;;;;13.02;100.00;100602.88;10161859;29;20652;-73
2023/10/09 03:43:01;;;;;;;50.45;25.95;;;;;;;13.07;100.00;100592.53;10159528;28;20063;-73
2023/10/09 03:48:10;;;;;;;51.83;24.48;;;;;;;13.06;100.00;100601.63;10156617;28;20711;-74
2023/10/09 03:53:14;;;;;;;51.25;24.90;;;;;;;12.98;100.00;100596.06;10153385;28;20047;-73
2023/10/09 03:58:18;;;;;;;53.65;23.98;;;;;;;13.07;100.00;100589.84;10155505;29;20431;-74
2023/10/09 04:03:21;;;;;;;44.47;22.33;;;;;;;12.91;100.00;100590.31;10159012;29;20345;-73
2023/10/09 04:08:30;;;;;;;49.97;23.15;;;;;;;13.03;100.00;100588.41;10170211;28;20052;-74
2023/10/09 04:13:34;;;;;;;47.40;23.48;;;;;;;13.10;100.00;100591.41;10172050;28;21523;-74
2023/10/09 04:18:39;;;;;;;43.28;21.95;;;;;;;13.02;100.00;100589.38;10167126;29;20442;-74
2023/10/09 04:24:09;;;;;;;45.03;24.05;;;;;;;13.09;100.00;100565.44;10163125;29;20048;-73
2023/10/09 04:29:18;;;;;;;50.10;24.52;;;;;;;13.10;100.00;100581.47;10161531;28;20090;-74
2023/10/09 04:34:34;;;;;;;47.42;23.67;;;;;;;13.21;100.00;100584.06;10168030;28;20052;-74
2023/10/09 04:39:46;;;;;;;58.60;24.55;;;;;;;13.11;100.00;100580.50;10183757;28;20048;-74
2023/10/09 04:55:44;;;;;;;50.70;23.52;;;;;;;13.41;98.87;100614.72;10163412;28;20473;-74
2023/10/09 05:01:02;;;;;;;59.92;24.98;;;;;;;13.48;98.88;100615.84;10166296;28;20482;-74
2023/10/09 05:06:20;;;;;;;61.33;24.52;;;;;;;13.64;98.42;100630.69;10164322;28;20044;-74
2023/10/09 05:16:54;;;;;;;57.67;24.63;;;;;;;13.58;99.01;100613.19;10157651;29;20048;-74
2023/10/09 05:21:58;;;;;;;54.55;25.40;;;;;;;13.45;99.80;100621.53;10166944;28;20047;-73
2023/10/09 05:27:17;;;;;;;53.85;27.75;;;;;;;13.68;99.19;100624.00;10166960;28;20647;-73
2023/10/09 05:32:29;;;;;;;57.55;27.67;;;;;;;13.47;100.00;100627.66;10164859;28;20171;-73
2023/10/09 05:37:33;;;;;;;54.67;27.75;;;;;;;13.68;100.00;100619.44;10160649;28;20540;-74
2023/10/09 05:42:44;;;;;;;59.95;27.67;;;;;;;13.66;100.00;100616.06;10161181;29;20047;-74
2023/10/09 05:47:53;;;;;;;51.72;29.15;;;;;;;13.55;100.00;100624.28;10163676;29;20059;-74
2023/10/09 05:53:17;;;;;;;49.80;26.77;;;;;;;13.56;100.00;100609.78;10164519;28;20047;-74
2023/10/09 06:03:49;;;;;;;47.58;23.05;;;;;;;13.64;100.00;100630.69;10165181;29;20665;-74
2023/10/09 06:14:24;;;;;;;47.78;26.90;;;;;;;13.77;100.00;100641.19;10129269;29;20078;-74
2023/10/09 06:19:31;;;;;;;52.83;30.23;;;;;;;14.01;99.46;100651.63;10165561;28;20043;-73
2023/10/09 06:24:41;;;;;;;50.90;29.08;;;;;;;14.26;97.67;100656.50;10165850;28;20511;-74
2023/10/09 06:30:13;;;;;;;51.88;26.42;;;;;;;13.98;98.71;100668.13;10161592;28;20116;-74
2023/10/09 06:35:21;;;;;;;54.90;27.27;;;;;;;13.97;99.40;100669.13;10164019;29;20064;-74
2023/10/09 06:45:54;;;;;;;53.63;28.17;;;;;;;13.93;100.00;100677.50;10164686;28;20060;-74
2023/10/09 06:51:07;;;;;;;50.65;29.10;;;;;;;13.98;100.00;100666.25;10168020;28;20051;-74
2023/10/09 06:56:23;;;;;;;53.95;29.52;;;;;;;13.79;100.00;100674.31;10169512;29;20052;-73
2023/10/09 07:01:28;;;;;;;56.28;27.58;;;;;;;13.93;100.00;100671.22;10179693;28;20052;-73
2023/10/09 07:12:03;;;;;;;56.65;31.13;;;;;;;14.11;100.00;100668.72;10162662;28;20062;-73
2023/10/09 07:17:16;;;;;;;50.40;28.50;;;;;;;13.71;100.00;100678.59;10171862;29;20048;-73
2023/10/09 07:22:29;;;;;;;57.63;29.83;;;;;;;14.08;100.00;100682.50;10181819;28;20469;-73
2023/10/09 07:27:44;;;;;;;;;;;;;;;14.07;100.00;100664.56;10182268;28;20044;-73
2023/10/09 07:32:47;;;;;;;58.03;28.30;;;;;;;14.24;100.00;100671.16;10183274;28;20630;-73
2023/10/09 07:37:52;;;;;;;48.13;28.23;;;;;;;14.25;100.00;100687.19;10175674;29;20091;-74
2023/10/09 07:43:04;;;;;;;55.58;29.85;;;;;;;14.11;100.00;100693.03;10172552;28;20058;-74
2023/10/09 07:48:14;;;;;;;51.45;29.00;;;;;;;14.24;100.00;100695.47;10170003;29;20059;-73
2023/10/09 07:53:19;;;;;;;48.80;28.05;;;;;;;14.15;100.00;100672.81;10170717;28;20056;-73
2023/10/09 07:58:25;;;;;;;53.63;31.08;;;;;;;13.96;100.00;100667.38;10174502;28;20453;-74
2023/10/09 08:03:32;;;;;;;54.40;32.10;;;;;;;14.16;100.00;100693.47;10172648;28;20048;-74
2023/10/09 08:08:55;;;;;;;55.45;31.65;;;;;;;14.10;100.00;100688.63;10176566;29;20043;-74
2023/10/09 08:14:00;;;;;;;58.95;31.15;;;;;;;14.10;100.00;100685.91;10192910;28;20051;-73
2023/10/09 08:19:32;;;;;;;49.08;28.67;;;;;;;14.15;100.00;100660.19;10206333;28;20722;-73
2023/10/09 08:24:42;;;;;;;53.45;29.77;;;;;;;14.20;100.00;100670.56;10170971;28;20137;-74
2023/10/09 08:29:47;;;;;;;51.03;28.60;;;;;;;14.10;100.00;100694.03;10175487;28;20052;-75
2023/10/09 08:34:53;;;;;;;48.90;27.10;;;;;;;14.36;100.00;100689.75;10189682;28;20498;-74
2023/10/09 08:40:00;;;;;;;42.70;24.25;;;;;;;14.10;100.00;100688.63;10177149;29;20091;-74
2023/10/09 08:45:05;;;;;;;50.38;25.35;;;;;;;14.23;100.00;100686.47;10174997;29;20051;-74
2023/10/09 08:50:13;;;;;;;41.58;24.85;;;;;;;14.00;100.00;100666.97;10186888;28;20043;-74
2023/10/09 08:55:17;;;;;;;49.28;28.05;;;;;;;14.29;100.00;100652.63;10185596;28;20514;-74
2023/10/09 09:00:23;;;;;;;50.40;28.67;;;;;;;14.35;100.00;100642.13;10183888;28;20051;-74
2023/10/09 09:05:28;;;;;;;49.30;26.83;;;;;;;14.18;100.00;100637.44;10189325;28;20522;-74
2023/10/09 09:10:36;;;;;;;51.15;28.08;;;;;;;14.11;100.00;100622.78;10187096;28;20052;-74
2023/10/09 09:15:40;;;;;;;50.97;30.10;;;;;;;14.05;100.00;100624.22;10189731;28;20054;-74
2023/10/09 09:20:46;;;;;;;42.55;21.98;;;;;;;13.73;100.00;100648.75;10184511;28;20529;-75
2023/10/09 09:25:58;;;;;;;51.20;27.70;;;;;;;13.96;100.00;100652.06;10187432;28;20043;-74
2023/10/09 09:31:13;;;;;;;54.33;30.67;;;;;;;14.24;100.00;100663.03;10169690;28;20054;-76
2023/10/09 09:36:16;;;;;;;54.65;27.27;;;;;;;14.34;100.00;100655.78;10178953;29;20565;-75
2023/10/09 09:41:24;;;;;;;50.72;30.23;;;;;;;14.08;100.00;100650.09;10182411;28;20082;-74
2023/10/09 09:46:33;;;;;;;52.97;29.27;;;;;;;14.34;100.00;100642.25;10185446;28;20066;-74
2023/10/09 09:51:37;;;;;;;51.25;29.63;;;;;;;14.07;100.00;100626.75;10182645;28;20086;-74
2023/10/09 09:56:42;;;;;;;57.70;31.35;;;;;;;14.08;100.00;100628.47;10181067;28;20055;-75
2023/10/09 10:01:56;;;;;;;56.53;31.08;;;;;;;14.28;100.00;100618.50;10173386;29;20063;-73
2023/10/09 10:07:04;;;;;;;50.80;29.30;;;;;;;14.09;100.00;100619.38;10164024;28;20052;-74
2023/10/09 10:12:10;;;;;;;56.03;32.47;;;;;;;14.39;100.00;100615.69;10158658;28;20657;-74
2023/10/09 10:17:17;;;;;;;50.10;27.55;;;;;;;14.19;100.00;100614.81;10171330;28;20055;-75
2023/10/09 10:22:27;;;;;;;50.47;27.20;;;;;;;14.44;100.00;100617.97;10167413;29;20188;-74
2023/10/09 10:27:32;;;;;;;59.35;32.03;;;;;;;14.64;100.00;100611.53;10169026;29;20115;-74
2023/10/09 10:32:57;;;;;;;51.25;29.98;;;;;;;14.26;100.00;100631.31;10183568;28;20052;-75
2023/10/09 10:38:11;;;;;;;48.10;29.83;;;;;;;14.57;100.00;100626.63;10187833;28;20055;-74
2023/10/09 10:43:31;;;;;;;49.17;28.88;;;;;;;14.49;100.00;100621.09;10187804;28;20055;-75
2023/10/09 10:48:38;;;;;;;52.85;28.85;;;;;;;14.91;100.00;100635.09;10169506;29;20051;-74
2023/10/09 10:53:57;;;;;;;47.38;28.95;;;;;;;14.81;100.00;100659.47;10168617;29;20612;-74
2023/10/09 10:59:12;;;;;;;56.72;32.17;;;;;;;14.68;100.00;100671.59;10159159;28;20089;-75
2023/10/09 11:11:16;;;;;;;58.63;35.17;;;;;;;13.90;100.00;100733.63;10323022;28;20068;-79
2023/10/09 11:16:32;;;;;;;68.80;39.67;;;;;;;13.66;100.00;100721.34;10304552;28;20055;-79
2023/10/09 11:21:40;;;;;;;66.25;36.58;;;;;;;13.26;100.00;100684.31;10266385;28;20062;-78
2023/10/09 11:26:53;;;;;;;82.03;46.17;;;;;;;13.78;100.00;100689.69;10265783;28;20057;-79
2023/10/09 11:32:04;;;;;;;73.97;45.50;;;;;;;13.77;100.00;100677.19;10274149;28;20140;-79
2023/10/09 11:37:15;;;;;;;69.40;44.22;;;;;;;13.72;100.00;100674.03;10269891;28;20181;-78
2023/10/09 11:42:35;;;;;;;75.43;48.63;;;;;;;13.94;100.00;100681.06;10267809;28;21259;-77
2023/10/09 11:47:54;;;;;;;76.80;48.53;;;;;;;14.12;100.00;100648.78;10265943;28;20046;-78
2023/10/09 11:53:17;;;;;;;77.57;50.47;;;;;;;14.18;100.00;100675.28;10262823;28;20409;-79
2023/10/09 11:58:23;;;;;;;85.65;53.25;;;;;;;14.34;100.00;100669.28;10290961;28;20049;-79
2023/10/09 12:03:29;;;;;;;77.63;44.95;;;;;;;14.05;100.00;100686.34;10322144;28;20117;-79
2023/10/09 12:08:32;;;;;;;82.57;47.75;;;;;;;14.08;100.00;100653.63;10300722;28;20055;-79
2023/10/09 12:13:38;;;;;;;84.75;49.50;;;;;;;14.40;100.00;100657.97;10264037;28;20043;-80
2023/10/09 12:18:48;;;;;;;80.65;49.15;;;;;;;14.47;100.00;100653.66;10264056;28;20077;-79
2023/10/09 12:23:51;;;;;;;91.18;49.88;;;;;;;14.51;100.00;100655.09;10271966;28;20126;-79
2023/10/09 12:28:53;;;;;;;82.93;47.30;;;;;;;14.69;100.00;100662.47;10274052;28;21764;-79
2023/10/09 12:33:59;;;;;;;91.43;51.75;;;;;;;14.62;100.00;100661.34;10268075;28;20053;-79
2023/10/09 12:39:03;;;;;;;74.07;46.63;;;;;;;14.96;100.00;100653.59;10269010;28;20046;-78
2023/10/09 12:44:11;;;;;;;71.18;41.15;;;;;;;14.80;100.00;100668.56;10285065;28;20066;-79
2023/10/09 12:49:16;;;;;;;71.93;44.10;;;;;;;15.43;100.00;100667.97;10274036;28;20071;-79
2023/10/09 12:54:20;;;;;;;61.15;40.08;;;;;;;15.31;100.00;100679.97;10273349;28;20595;-79
2023/10/09 12:59:24;;;;;;;59.25;40.67;;;;;;;15.34;100.00;100671.59;10271999;28;20077;-79
2023/10/09 13:04:31;;;;;;;67.70;42.90;;;;;;;15.36;100.00;100669.59;10264811;28;20046;-78
2023/10/09 13:09:42;;;;;;;57.03;39.08;;;;;;;15.17;100.00;100670.47;10281971;28;20054;-78
2023/10/09 13:14:47;;;;;;;62.72;40.40;;;;;;;15.24;100.00;100671.56;10270799;28;20047;-79
2023/10/09 13:19:51;;;;;;;60.75;42.30;;;;;;;15.17;100.00;100667.78;10274980;28;20046;-78
2023/10/09 13:25:03;;;;;;;69.43;42.90;;;;;;;15.24;100.00;100678.84;10261985;28;20057;-78
2023/10/09 13:30:09;;;;;;;73.90;44.03;;;;;;;15.32;100.00;100675.41;10273246;28;20077;-78
2023/10/09 13:35:14;;;;;;;69.82;44.42;;;;;;;15.24;100.00;100666.16;10273670;28;20470;-78
2023/10/09 13:40:26;;;;;;;62.58;43.33;;;;;;;15.31;100.00;100671.84;10262997;28;20051;-78
2023/10/09 13:45:30;;;;;;;65.47;41.90;;;;;;;15.15;100.00;100669.78;10275782;28;20053;-79
2023/10/09 13:50:35;;;;;;;66.80;43.70;;;;;;;15.33;100.00;100675.28;10270291;28;20047;-78
2023/10/09 13:55:43;;;;;;;66.50;42.67;;;;;;;15.31;100.00;100674.56;10268657;28;20049;-78
2023/10/09 14:00:49;;;;;;;64.20;43.78;;;;;;;15.33;100.00;100686.09;10259250;28;20070;-78
2023/10/09 14:05:56;;;;;;;64.57;43.42;;;;;;;15.47;100.00;100688.34;10273480;28;21126;-77
2023/10/09 14:11:00;;;;;;;72.72;45.90;;;;;;;15.52;100.00;100689.75;10271692;28;20126;-78
2023/10/09 14:16:03;;;;;;;74.88;47.38;;;;;;;15.42;100.00;100678.97;10276729;28;20083;-77
2023/10/09 14:21:16;;;;;;;81.75;45.60;;;;;;;15.41;100.00;100678.13;10267547;28;20084;-79
2023/10/09 14:26:22;;;;;;;65.22;41.53;;;;;;;15.31;100.00;100674.56;10262816;28;20082;-78
2023/10/09 14:31:29;;;;;;;69.32;41.42;;;;;;;15.53;100.00;100678.78;10257777;28;20051;-77
2023/10/09 14:36:34;;;;;;;59.58;37.80;;;;;;;15.67;100.00;100662.03;10280442;28;20046;-77
2023/10/09 14:41:37;;;;;;;61.50;37.83;;;;;;;15.84;100.00;100664.94;10261770;28;20445;-76
2023/10/09 14:46:40;;;;;;;58.28;37.60;;;;;;;15.98;100.00;100650.84;10262732;28;20496;-76
2023/10/09 14:51:46;;;;;;;55.35;34.88;;;;;;;15.71;100.00;100657.16;10267312;28;20054;-76
2023/10/09 14:56:50;;;;;;;53.45;32.53;;;;;;;15.90;100.00;100664.31;10258475;28;20665;-76
2023/10/09 15:01:53;;;;;;;58.58;33.95;;;;;;;15.98;100.00;100669.81;10250413;28;20425;-77
2023/10/09 15:06:58;;;;;;;49.95;30.45;;;;;;;16.31;100.00;100662.91;10249044;28;20090;-76
2023/10/09 15:12:01;;;;;;;46.47;29.02;;;;;;;16.41;100.00;100657.41;10261337;28;20061;-77
2023/10/09 15:17:06;;;;;;;40.42;26.10;;;;;;;15.96;100.00;100670.97;10270079;28;20415;-76
2023/10/09 15:22:11;;;;;;;40.88;26.42;;;;;;;15.99;100.00;100668.84;10254677;28;20051;-76
2023/10/09 15:27:15;;;;;;;43.88;25.50;;;;;;;16.17;100.00;100659.84;10264971;28;20157;-76
2023/10/09 15:32:22;;;;;;;42.80;26.15;;;;;;;16.13;100.00;100668.31;10262981;28;20425;-75
2023/10/09 15:37:28;;;;;;;39.42;21.63;;;;;;;16.01;100.00;100664.09;10255201;28;20047;-76
2023/10/09 15:42:32;;;;;;;38.30;23.15;;;;;;;16.05;100.00;100673.63;10267552;28;20047;-74
2023/10/09 15:47:37;;;;;;;35.33;19.73;;;;;;;15.92;100.00;100676.69;10276420;28;20054;-76
2023/10/09 15:52:43;;;;;;;29.77;19.38;;;;;;;16.11;100.00;100673.00;10261873;28;20131;-77
2023/10/09 15:57:48;;;;;;;31.50;22.00;;;;;;;15.96;100.00;100676.41;10250017;28;20053;-76
2023/10/09 16:02:52;;;;;;;29.25;20.38;;;;;;;15.91;100.00;100685.84;10278082;28;20058;-76
2023/10/09 16:08:00;;;;;;;32.30;22.60;;;;;;;15.77;100.00;100680.06;10273058;28;20104;-77
2023/10/09 16:13:04;;;;;;;38.42;21.23;;;;;;;16.10;100.00;100690.28;10261560;28;20105;-77
2023/10/09 16:18:07;;;;;;;44.70;30.60;;;;;;;16.04;100.00;100695.44;10274992;28;20042;-77
2023/10/09 16:23:12;;;;;;;41.83;31.83;;;;;;;16.31;100.00;100695.44;10271780;28;20510;-77
2023/10/09 16:28:15;;;;;;;37.65;24.45;;;;;;;16.00;100.00;100703.03;10269507;28;20178;-77
2023/10/09 16:33:19;;;;;;;57.78;37.13;;;;;;;15.97;100.00;100708.78;10273397;28;20050;-78
2023/10/09 16:38:25;;;;;;;87.38;55.92;;;;;;;15.99;100.00;100706.75;10279687;28;20046;-78
2023/10/09 16:43:28;;;;;;;36.47;20.70;;;;;;;15.91;100.00;100718.34;10282551;28;20128;-78
2023/10/09 16:48:30;;;;;;;33.08;19.08;;;;;;;15.98;100.00;100705.03;10277703;28;20057;-78
2023/10/09 16:53:36;;;;;;;33.67;20.35;;;;;;;15.94;100.00;100722.63;10264558;28;20505;-79
2023/10/09 16:58:41;;;;;;;37.72;21.50;;;;;;;15.62;100.00;100721.19;10273671;28;20046;-78
2023/10/09 17:03:47;;;;;;;39.45;20.17;;;;;;;15.23;100.00;100729.41;10271862;28;20058;-78
2023/10/09 17:08:52;;;;;;;42.15;24.80;;;;;;;15.76;100.00;100738.81;10272356;28;20069;-78
2023/10/09 17:13:57;;;;;;;37.83;21.50;;;;;;;15.58;100.00;100746.03;10272981;28;20073;-78
2023/10/09 17:19:01;;;;;;;37.75;21.77;;;;;;;15.40;100.00;100746.78;10259375;28;20054;-78
2023/10/09 17:24:10;;;;;;;38.75;21.90;;;;;;;15.42;100.00;100735.81;10273773;28;20042;-79
2023/10/09 17:29:13;;;;;;;35.97;23.38;;;;;;;15.59;100.00;100742.31;10269388;28;20062;-79
2023/10/09 17:34:17;;;;;;;37.72;27.13;;;;;;;15.70;100.00;100751.09;10262974;28;20047;-78
2023/10/09 17:39:26;;;;;;;40.88;26.88;;;;;;;15.88;100.00;100753.03;10269289;28;20054;-78
2023/10/09 17:44:28;;;;;;;39.55;25.25;;;;;;;15.63;100.00;100755.41;10269616;28;20067;-79
2023/10/09 17:49:31;;;;;;;41.92;25.58;;;;;;;15.72;100.00;100759.09;10266126;28;20043;-78
2023/10/09 17:54:36;;;;;;;40.58;28.60;;;;;;;15.70;100.00;100756.50;10273062;28;20047;-78
2023/10/09 17:59:40;;;;;;;42.47;28.38;;;;;;;15.88;100.00;100769.28;10277013;28;20077;-78
2023/10/09 18:04:43;;;;;;;51.83;35.33;;;;;;;15.76;100.00;100774.00;10272606;28;20661;-79
2023/10/09 18:09:51;;;;;;;46.47;29.40;;;;;;;16.07;100.00;100780.03;10274180;28;21173;-78
2023/10/09 18:14:58;;;;;;;40.53;30.30;;;;;;;15.77;100.00;100783.00;10251048;28;20494;-77
2023/10/09 18:20:05;;;;;;;35.33;22.73;;;;;;;15.46;100.00;100789.50;10255689;28;20978;-77
2023/10/09 18:25:11;;;;;;;40.42;26.00;;;;;;;15.92;100.00;100792.34;10260220;28;20398;-77
2023/10/09 18:30:14;;;;;;;38.33;27.33;;;;;;;16.02;100.00;100798.59;10273602;28;20090;-77
2023/10/09 18:35:18;;;;;;;31.08;23.77;;;;;;;16.19;100.00;100794.22;10269456;28;20047;-77
2023/10/09 18:40:25;;;;;;;36.95;23.88;;;;;;;16.07;100.00;100793.56;10260195;28;20081;-77
2023/10/09 18:45:30;;;;;;;26.83;19.05;;;;;;;15.88;100.00;100799.09;10259239;28;20039;-78
2023/10/09 18:50:40;;;;;;;24.27;17.55;;;;;;;16.02;100.00;100793.16;10256729;28;20047;-78
2023/10/09 18:55:45;;;;;;;30.13;18.90;;;;;;;16.11;100.00;100789.53;10263023;28;20054;-78
2023/10/09 19:00:51;;;;;;;27.50;16.17;;;;;;;15.89;100.00;100796.22;10244732;28;20113;-78
2023/10/09 19:05:54;;;;;;;25.85;15.95;;;;;;;16.07;100.00;100801.69;10259002;28;20058;-78
2023/10/09 19:11:08;;;;;;;21.83;14.93;;;;;;;16.21;100.00;100799.47;10259463;28;20074;-78
2023/10/09 19:16:12;;;;;;;27.67;14.90;;;;;;;15.99;100.00;100788.03;10252698;28;20054;-77
2023/10/09 19:21:16;;;;;;;23.48;13.38;;;;;;;16.14;100.00;100789.22;10270834;28;20054;-78
2023/10/09 19:26:20;;;;;;;24.30;15.75;;;;;;;16.18;100.00;100787.09;10273081;28;20043;-78
2023/10/09 19:31:23;;;;;;;25.92;15.52;;;;;;;16.11;100.00;100780.56;10266337;28;20048;-78
2023/10/09 19:36:28;;;;;;;25.08;16.52;;;;;;;15.93;100.00;100792.22;10270566;28;20422;-78
2023/10/09 19:41:35;;;;;;;23.75;16.10;;;;;;;15.69;100.00;100798.13;10275893;28;21179;-78
2023/10/09 19:46:38;;;;;;;29.55;15.98;;;;;;;15.99;100.00;100801.59;10264046;28;20062;-77
2023/10/09 19:51:42;;;;;;;26.23;15.85;;;;;;;15.95;100.00;100796.63;10254445;28;20168;-76
2023/10/09 19:56:46;;;;;;;31.88;18.23;;;;;;;16.09;100.00;100799.66;10260247;28;20050;-77
2023/10/09 20:01:51;;;;;;;27.15;17.33;;;;;;;15.78;100.00;100812.66;10259923;28;20069;-77
2023/10/09 20:06:54;;;;;;;27.95;19.17;;;;;;;15.81;100.00;100817.75;10256048;28;20082;-78
2023/10/09 20:12:01;;;;;;;33.10;19.67;;;;;;;15.83;100.00;100817.63;10261429;28;20057;-78
2023/10/09 20:17:04;;;;;;;40.95;21.20;;;;;;;15.83;100.00;100823.91;10262143;28;20055;-79
2023/10/09 20:22:07;;;;;;;32.72;18.80;;;;;;;15.87;100.00;100821.72;10261419;28;20057;-78
2023/10/09 20:27:12;;;;;;;28.20;19.42;;;;;;;15.91;100.00;100818.59;10264028;28;20097;-77
2023/10/09 20:32:15;;;;;;;35.58;24.20;;;;;;;16.06;100.00;100827.06;10261836;28;20559;-77
2023/10/09 20:37:18;;;;;;;31.60;19.00;;;;;;;16.19;100.00;100836.72;10270041;28;20050;-77
2023/10/09 20:42:24;;;;;;;28.88;16.75;;;;;;;16.15;100.00;100837.03;10255632;28;20510;-77
2023/10/09 20:47:27;;;;;;;15.23;10.20;;;;;;;16.08;100.00;100843.19;10255962;28;20135;-78
2023/10/09 20:52:30;;;;;;;21.08;11.75;;;;;;;15.98;100.00;100840.50;10273794;28;20058;-77
2023/10/09 20:57:34;;;;;;;12.75;6.68;;;;;;;15.90;100.00;100846.66;10266711;28;20077;-77
2023/10/09 21:02:37;;;;;;;14.73;7.40;;;;;;;15.87;100.00;100848.81;10271104;28;20113;-77
2023/10/09 21:07:41;;;;;;;15.30;7.32;;;;;;;15.82;100.00;100851.13;10270528;28;20148;-77
2023/10/09 21:12:48;;;;;;;9.55;6.35;;;;;;;15.71;100.00;100862.97;10271954;28;20177;-77
2023/10/09 21:17:51;;;;;;;12.63;6.10;;;;;;;15.74;100.00;100859.13;10272638;28;20054;-77
2023/10/09 21:22:56;;;;;;;9.43;5.13;;;;;;;15.74;100.00;100869.97;10268737;28;20053;-77
2023/10/09 21:28:00;;;;;;;11.73;6.18;;;;;;;15.54;100.00;100853.75;10277683;28;20053;-78
2023/10/09 21:33:03;;;;;;;13.88;5.75;;;;;;;15.67;100.00;100846.19;10272821;28;20065;-78
2023/10/09 21:38:07;;;;;;;13.65;5.75;;;;;;;15.67;100.00;100859.72;10276633;28;20078;-78
2023/10/09 21:43:12;;;;;;;10.55;5.22;;;;;;;15.66;100.00;100866.16;10271016;28;20436;-78
2023/10/09 21:48:17;;;;;;;11.95;5.97;;;;;;;15.65;100.00;100866.28;10268428;28;20061;-78
2023/10/09 21:53:20;;;;;;;14.85;6.13;;;;;;;15.65;100.00;100864.41;10278091;28;20054;-78
2023/10/09 21:58:24;;;;;;;12.55;6.68;;;;;;;15.63;100.00;100862.84;10258774;28;20077;-78
2023/10/09 22:03:27;;;;;;;12.70;6.60;;;;;;;15.53;100.00;100862.88;10273628;28;20134;-77
2023/10/09 22:08:33;;;;;;;15.75;6.60;;;;;;;15.38;100.00;100875.16;10262607;28;20129;-77
2023/10/09 22:13:38;;;;;;;14.57;6.15;;;;;;;15.59;100.00;100856.88;10274248;28;20042;-77
2023/10/09 22:18:41;;;;;;;12.77;6.47;;;;;;;15.60;100.00;100860.44;10271230;28;20097;-77
2023/10/09 22:23:52;;;;;;;12.80;6.38;;;;;;;15.61;100.00;100867.59;10268059;28;20121;-77
2023/10/09 22:28:56;;;;;;;16.90;6.72;;;;;;;15.58;100.00;100862.47;10261715;28;20058;-77
2023/10/09 22:34:10;;;;;;;13.63;6.35;;;;;;;15.48;100.00;100865.16;10269364;28;20383;-77
2023/10/09 22:39:20;;;;;;;13.48;6.75;;;;;;;15.31;100.00;100871.28;10271537;28;20059;-77
2023/10/09 22:44:32;;;;;;;14.00;6.95;;;;;;;15.24;100.00;100869.13;10272675;28;20627;-77
2023/10/09 22:49:35;;;;;;;10.25;6.93;;;;;;;15.12;100.00;100866.75;10271556;28;20038;-77
2023/10/09 22:54:41;;;;;;;15.48;8.10;;;;;;;15.44;100.00;100874.56;10274159;28;20075;-77
2023/10/09 22:59:50;;;;;;;16.90;7.07;;;;;;;15.34;100.00;100868.28;10266916;28;20050;-77
2023/10/09 23:05:03;;;;;;;11.05;6.25;;;;;;;15.41;100.00;100866.72;10260870;28;20062;-77
2023/10/09 23:10:15;;;;;;;10.88;6.80;;;;;;;15.22;100.00;100871.16;10262607;28;20363;-77
2023/10/09 23:15:33;;;;;;;12.23;6.78;;;;;;;15.33;100.00;100871.97;10266460;28;20537;-77
2023/10/09 23:20:48;;;;;;;13.10;7.82;;;;;;;15.21;100.00;100860.47;10270246;28;20073;-78
2023/10/09 23:25:53;;;;;;;10.93;6.47;;;;;;;14.90;100.00;100865.16;10269628;28;20059;-77
2023/10/09 23:30:59;;;;;;;14.02;7.13;;;;;;;15.13;100.00;100861.16;10269228;28;20599;-77
2023/10/09 23:36:04;;;;;;;14.48;6.65;;;;;;;15.05;100.00;100872.69;10261597;28;20061;-77